Time;durP1;ratioP1;P1;durP2;ratioP2;P2;SDS_P1;SDS_P2;PMS_P1;PMS_P2;Temp;Humidity;BMP_temperature;BMP_pressure;BME280_temperature;BME280_humidity;BME280_pressure;Samples;Min_cycle;Max_cycle;Signal;HPM_P1;HPM_P2
2023/11/13 00:00:04;;;;;;;2.30;2.10;;;;;;;4.86;89.74;97929.27;109289;1251;61017;-82
2023/11/13 00:02:34;;;;;;;1.70;1.50;;;;;;;4.83;89.79;97924.48;109304;1251;61359;-82
2023/11/13 00:05:01;;;;;;;2.30;1.90;;;;;;;4.81;89.80;97930.27;109337;1251;72906;-81
2023/11/13 00:07:28;;;;;;;4.80;2.10;;;;;;;4.79;90.05;97932.33;109307;1251;74146;-82
2023/11/13 00:09:55;;;;;;;4.30;2.60;;;;;;;4.76;90.12;97934.47;109317;1251;74206;-81
2023/11/13 00:12:22;;;;;;;3.50;2.60;;;;;;;4.73;90.32;97936.36;109281;1251;61444;-82
2023/11/13 00:14:51;;;;;;;4.10;2.80;;;;;;;4.70;90.43;97938.45;109188;1251;60512;-82
2023/11/13 00:17:26;;;;;;;4.50;2.80;;;;;;;4.67;90.63;97938.80;109222;1251;73780;-81
2023/11/13 00:19:53;;;;;;;3.30;2.40;;;;;;;4.65;90.77;97938.73;109368;1251;73348;-82
2023/11/13 00:22:20;;;;;;;3.20;2.70;;;;;;;4.62;91.06;97941.35;109334;1251;73184;-82
2023/11/13 00:24:47;;;;;;;3.40;2.70;;;;;;;4.60;91.26;97947.32;109356;1251;60604;-82
2023/11/13 00:27:14;;;;;;;6.30;4.60;;;;;;;4.58;91.38;97951.48;109354;1251;59095;-82
2023/11/13 00:29:41;;;;;;;7.00;4.50;;;;;;;4.56;91.55;97952.63;109376;1251;74846;-83
2023/11/13 00:32:08;;;;;;;7.80;5.20;;;;;;;4.55;91.74;97951.31;109371;1251;75023;-81
2023/11/13 00:34:35;;;;;;;11.10;5.80;;;;;;;4.52;91.63;97961.36;109396;1251;72494;-80
2023/11/13 00:37:02;;;;;;;7.40;4.80;;;;;;;4.51;91.94;97959.46;109358;1251;59141;-82
2023/11/13 00:39:30;;;;;;;10.10;5.50;;;;;;;4.48;92.10;97963.36;109335;1251;59255;-82
2023/11/13 00:41:57;;;;;;;8.20;4.60;;;;;;;4.46;92.23;97964.69;109338;1251;72843;-81
2023/11/13 00:44:25;;;;;;;4.60;3.40;;;;;;;4.44;92.52;97967.83;109308;1252;74197;-81
2023/11/13 00:46:52;;;;;;;3.90;2.40;;;;;;;4.42;92.71;97968.48;109372;1251;72344;-81
2023/11/13 00:49:19;;;;;;;3.80;2.60;;;;;;;4.40;92.97;97970.35;109362;1251;61410;-81
2023/11/13 00:51:46;;;;;;;3.50;2.20;;;;;;;4.38;93.21;97973.80;109327;1251;59394;-81
2023/11/13 00:54:13;;;;;;;2.60;2.00;;;;;;;4.36;93.39;97974.27;109306;1251;74195;-81
2023/11/13 00:56:40;;;;;;;3.00;2.00;;;;;;;4.35;93.63;97980.15;109334;1251;74426;-81
2023/11/13 00:59:07;;;;;;;4.50;2.60;;;;;;;4.32;93.78;97982.58;109349;1251;71227;-80
2023/11/13 01:01:35;;;;;;;2.90;2.00;;;;;;;4.32;93.93;97983.48;109374;1251;59052;-82
2023/11/13 01:04:06;;;;;;;2.60;1.40;;;;;;;4.32;94.18;97984.39;109415;1251;58978;-81
2023/11/13 01:06:33;;;;;;;1.90;1.50;;;;;;;4.31;94.27;97988.66;109333;1251;73459;-82
2023/11/13 01:09:00;;;;;;;1.80;1.40;;;;;;;4.31;94.16;97994.70;109377;1251;75348;-82
2023/11/13 01:11:27;;;;;;;1.00;0.90;;;;;;;4.34;94.14;97998.98;109300;1253;72611;-82
2023/11/13 01:13:54;;;;;;;1.90;0.90;;;;;;;4.36;94.09;98002.61;109357;1251;60755;-82
2023/11/13 01:16:21;;;;;;;1.10;0.90;;;;;;;4.39;93.97;98003.91;109314;1252;60274;-81
2023/11/13 01:18:53;;;;;;;1.00;0.90;;;;;;;4.41;93.79;98002.71;109106;1251;72479;-81
2023/11/13 01:21:24;;;;;;;1.00;0.80;;;;;;;4.45;93.48;97997.92;109348;1251;73519;-81
2023/11/13 01:23:51;;;;;;;1.00;0.90;;;;;;;4.49;93.27;97999.31;109205;1251;70528;-83
2023/11/13 01:26:18;;;;;;;1.40;1.00;;;;;;;4.52;92.89;97998.42;109294;1251;60793;-81
2023/11/13 01:28:45;;;;;;;1.20;1.10;;;;;;;4.56;92.70;97992.92;109332;1251;61247;-81
2023/11/13 01:31:15;;;;;;;1.30;0.90;;;;;;;4.60;92.34;97999.96;109357;1251;73906;-84
2023/11/13 01:33:42;;;;;;;1.90;0.90;;;;;;;4.62;92.24;97995.77;109341;1251;73880;-81
2023/11/13 01:36:09;;;;;;;1.20;0.90;;;;;;;4.66;92.12;97996.83;109300;1251;73475;-81
2023/11/13 01:38:36;;;;;;;1.20;1.10;;;;;;;4.69;92.23;97995.96;109336;1251;60016;-81
2023/11/13 01:41:03;;;;;;;1.10;1.00;;;;;;;4.71;91.84;97997.65;109314;1251;59601;-82
2023/11/13 01:43:30;;;;;;;1.20;1.00;;;;;;;4.73;91.37;98008.40;109276;1251;74899;-82
2023/11/13 01:45:58;;;;;;;1.30;1.10;;;;;;;4.74;91.36;98006.36;109322;1251;74040;-82
2023/11/13 01:48:25;;;;;;;1.30;0.90;;;;;;;4.76;91.11;98000.77;109314;1251;73768;-83
2023/11/13 01:50:52;;;;;;;1.50;1.00;;;;;;;4.79;91.00;98006.48;109368;1251;60905;-82
2023/11/13 01:53:24;;;;;;;0.80;0.80;;;;;;;4.80;90.72;98000.73;109307;1251;60758;-83
2023/11/13 01:55:55;;;;;;;1.10;0.90;;;;;;;4.82;90.71;98002.40;109325;1251;71933;-82
2023/11/13 01:58:22;;;;;;;0.90;0.80;;;;;;;4.83;90.58;98006.08;109327;1251;74685;-83
2023/11/13 02:00:49;;;;;;;1.20;0.90;;;;;;;4.83;90.44;98006.07;109217;1251;73774;-82
2023/11/13 02:03:19;;;;;;;1.80;1.20;;;;;;;4.83;90.35;98008.02;109303;1251;60835;-81
2023/11/13 02:05:47;;;;;;;1.50;1.20;;;;;;;4.82;90.63;98008.05;109315;1252;59053;-82
2023/11/13 02:08:14;;;;;;;2.70;1.50;;;;;;;4.83;90.54;98009.42;109468;1251;73674;-82
2023/11/13 02:10:41;;;;;;;1.40;1.20;;;;;;;4.83;90.65;98012.45;109279;1251;75183;-81
2023/11/13 02:13:09;;;;;;;2.80;1.30;;;;;;;4.82;90.70;98016.58;109304;1251;73836;-83
2023/11/13 02:15:37;;;;;;;1.80;1.40;;;;;;;4.83;90.79;98017.98;109293;1251;59088;-81
2023/11/13 02:18:04;;;;;;;2.80;1.40;;;;;;;4.82;90.96;98023.68;109303;1251;59021;-81
2023/11/13 02:20:32;;;;;;;1.40;1.00;;;;;;;4.81;90.77;98023.87;109459;1251;73762;-81
2023/11/13 02:22:59;;;;;;;1.20;1.10;;;;;;;4.82;90.82;98024.41;109599;1251;73301;-79
2023/11/13 02:25:26;;;;;;;3.60;1.60;;;;;;;4.82;90.97;98025.30;109484;1251;71497;-82
2023/11/13 02:28:00;;;;;;;1.70;1.00;;;;;;;4.83;91.01;98026.13;109396;1251;60020;-81
2023/11/13 02:30:34;;;;;;;1.90;1.20;;;;;;;4.83;91.05;98026.10;109342;1251;60034;-82
2023/11/13 02:33:03;;;;;;;1.50;1.10;;;;;;;4.83;91.15;98024.33;109287;1251;73739;-82
2023/11/13 02:35:30;;;;;;;1.70;1.40;;;;;;;4.83;91.24;98027.71;109317;1251;74357;-82
2023/11/13 02:37:57;;;;;;;1.80;1.30;;;;;;;4.83;91.40;98030.36;109339;1251;70591;-81
2023/11/13 02:40:24;;;;;;;4.30;1.60;;;;;;;4.84;91.31;98031.21;109313;1251;61925;-81
2023/11/13 02:42:51;;;;;;;2.50;1.50;;;;;;;4.85;91.48;98027.26;109291;1251;59122;-82
2023/11/13 02:45:18;;;;;;;4.30;1.30;;;;;;;4.86;91.50;98031.81;109299;1251;73587;-82
2023/11/13 02:47:45;;;;;;;3.00;1.20;;;;;;;4.87;91.45;98027.30;109348;1251;73133;-82
2023/11/13 02:50:13;;;;;;;1.80;1.30;;;;;;;4.88;91.53;98026.73;109305;1251;72537;-82
2023/11/13 02:52:41;;;;;;;1.10;1.00;;;;;;;4.89;91.65;98032.88;109298;1251;60473;-82
2023/11/13 02:55:08;;;;;;;2.60;1.10;;;;;;;4.92;91.60;98040.94;109354;1251;59296;-82
2023/11/13 02:57:36;;;;;;;2.30;1.50;;;;;;;4.93;91.68;98034.29;109337;1251;73704;-82
2023/11/13 03:00:09;;;;;;;1.90;1.40;;;;;;;4.94;91.78;98036.19;109348;1251;73161;-81
2023/11/13 03:02:37;;;;;;;2.50;1.80;;;;;;;4.95;91.84;98040.05;109313;1253;71426;-81
2023/11/13 03:05:05;;;;;;;2.80;1.90;;;;;;;4.96;92.01;98042.50;109327;1251;60334;-82
2023/11/13 03:07:32;;;;;;;3.10;2.10;;;;;;;4.96;91.98;98034.69;109293;1251;59443;-82
2023/11/13 03:09:59;;;;;;;3.60;2.00;;;;;;;4.96;92.00;98042.80;109275;1251;72917;-83
2023/11/13 03:12:27;;;;;;;4.00;2.20;;;;;;;4.96;92.20;98043.18;109288;1251;72233;-82
2023/11/13 03:14:54;;;;;;;4.20;2.00;;;;;;;4.96;92.21;98043.18;109318;1251;71826;-82
2023/11/13 03:17:21;;;;;;;3.30;1.70;;;;;;;4.96;92.13;98043.17;109299;1251;59768;-82
2023/11/13 03:19:49;;;;;;;3.40;2.20;;;;;;;4.97;92.10;98042.42;109161;1251;59108;-82
2023/11/13 03:22:16;;;;;;;3.30;1.90;;;;;;;4.96;92.08;98044.95;109305;1251;73841;-82
2023/11/13 03:24:44;;;;;;;2.90;2.10;;;;;;;4.96;92.07;98042.09;109307;1251;73528;-82
2023/11/13 03:27:11;;;;;;;2.60;2.00;;;;;;;4.96;92.12;98046.18;109324;1251;72664;-81
2023/11/13 03:29:38;;;;;;;2.90;1.80;;;;;;;4.96;92.26;98042.48;109309;1251;60968;-82
2023/11/13 03:32:06;;;;;;;2.20;1.90;;;;;;;4.96;92.36;98044.80;109372;1251;59912;-82
2023/11/13 03:34:33;;;;;;;3.60;1.90;;;;;;;4.95;92.37;98043.41;109309;1251;72695;-82
2023/11/13 03:37:00;;;;;;;2.80;2.20;;;;;;;4.96;92.71;98045.50;109323;1251;75086;-82
2023/11/13 03:39:27;;;;;;;3.90;2.10;;;;;;;4.96;92.62;98045.15;109330;1251;71534;-81
2023/11/13 03:41:54;;;;;;;2.50;2.00;;;;;;;4.96;92.73;98043.73;109290;1253;60805;-82
2023/11/13 03:44:21;;;;;;;2.90;1.80;;;;;;;4.96;92.82;98043.17;109342;1251;60539;-83
2023/11/13 03:46:48;;;;;;;3.00;2.20;;;;;;;4.96;92.85;98045.13;109367;1251;73741;-83
2023/11/13 03:49:15;;;;;;;2.50;1.90;;;;;;;4.96;92.71;98050.06;109357;1251;74536;-81
2023/11/13 03:51:42;;;;;;;2.90;2.00;;;;;;;4.97;92.86;98048.11;109335;1251;72256;-82
2023/11/13 03:54:09;;;;;;;2.90;1.70;;;;;;;4.97;92.95;98049.52;109349;1251;61511;-82
2023/11/13 03:56:36;;;;;;;2.50;2.00;;;;;;;4.97;93.24;98049.37;109337;1251;59097;-81
2023/11/13 03:59:03;;;;;;;1.70;1.60;;;;;;;4.97;93.09;98053.05;109307;1251;73086;-83
2023/11/13 04:01:30;;;;;;;1.90;1.70;;;;;;;4.97;93.18;98050.73;109311;1251;73357;-82
2023/11/13 04:03:57;;;;;;;2.40;2.20;;;;;;;4.98;93.19;98051.97;109315;1251;71290;-83
2023/11/13 04:06:25;;;;;;;3.60;2.00;;;;;;;4.98;93.38;98052.13;109317;1251;60797;-82
2023/11/13 04:08:51;;;;;;;3.80;2.00;;;;;;;4.99;93.54;98051.16;109312;1251;60171;-82
2023/11/13 04:11:19;;;;;;;5.00;2.70;;;;;;;4.99;93.86;98052.59;109312;1251;73446;-83
2023/11/13 04:13:46;;;;;;;4.20;2.80;;;;;;;5.00;94.00;98047.23;109296;1251;73095;-83
2023/11/13 04:16:14;;;;;;;4.80;2.40;;;;;;;5.01;94.05;98049.50;109334;1251;72071;-82
2023/11/13 04:18:41;;;;;;;4.40;2.70;;;;;;;5.02;94.01;98045.88;109301;1251;60876;-82
2023/11/13 04:21:09;;;;;;;2.80;2.30;;;;;;;5.03;94.02;98041.05;109282;1251;59576;-81
2023/11/13 04:23:37;;;;;;;2.90;2.60;;;;;;;5.03;94.10;98038.36;109343;1251;75116;-82
2023/11/13 04:26:05;;;;;;;2.40;2.20;;;;;;;5.03;94.12;98039.61;109366;1251;73899;-82
2023/11/13 04:28:33;;;;;;;3.10;2.80;;;;;;;5.03;94.35;98039.25;109381;1251;71455;-81
2023/11/13 04:31:05;;;;;;;4.90;4.40;;;;;;;5.03;94.26;98037.32;109403;1251;61152;-81
2023/11/13 04:33:32;;;;;;;4.90;3.70;;;;;;;5.02;94.40;98041.96;109493;1251;60263;-81
2023/11/13 04:36:01;;;;;;;3.60;3.30;;;;;;;5.01;94.34;98043.98;109323;1252;73491;-82
2023/11/13 04:38:29;;;;;;;5.30;4.20;;;;;;;5.01;94.66;98040.09;109289;1251;75285;-82
2023/11/13 04:40:57;;;;;;;4.90;4.40;;;;;;;5.00;94.56;98045.09;109251;1251;72614;-82
2023/11/13 04:43:26;;;;;;;4.50;3.50;;;;;;;4.99;94.79;98043.35;109283;1252;60044;-81
2023/11/13 04:45:53;;;;;;;4.00;3.30;;;;;;;4.98;94.61;98045.20;109403;1251;59266;-81
2023/11/13 04:48:21;;;;;;;3.70;3.30;;;;;;;4.97;94.81;98042.41;109333;1251;74037;-81
2023/11/13 04:50:48;;;;;;;5.80;2.70;;;;;;;4.96;94.82;98042.30;109331;1251;74189;-81
2023/11/13 04:53:15;;;;;;;6.20;5.00;;;;;;;4.95;95.11;98042.02;109338;1251;72367;-82
2023/11/13 04:55:42;;;;;;;5.90;5.30;;;;;;;4.94;95.14;98038.86;109239;1252;61382;-82
2023/11/13 04:58:09;;;;;;;3.90;3.40;;;;;;;4.92;95.04;98040.20;109343;1251;60461;-82
2023/11/13 05:00:36;;;;;;;4.20;3.60;;;;;;;4.90;95.24;98037.63;109375;1251;73595;-82
2023/11/13 05:03:04;;;;;;;4.20;3.30;;;;;;;4.88;95.51;98037.75;109423;1251;72896;-81
2023/11/13 05:05:36;;;;;;;4.10;3.20;;;;;;;4.87;95.50;98037.80;109306;1251;73984;-83
2023/11/13 05:08:04;;;;;;;4.80;3.20;;;;;;;4.87;95.49;98041.33;109343;1251;61136;-82
2023/11/13 05:10:32;;;;;;;3.20;2.80;;;;;;;4.87;95.60;98035.66;109270;1254;59029;-81
2023/11/13 05:12:59;;;;;;;4.90;3.40;;;;;;;4.88;95.53;98038.46;109312;1251;72152;-81
2023/11/13 05:15:27;;;;;;;5.10;4.20;;;;;;;4.89;95.73;98042.30;109430;1251;74452;-80
2023/11/13 05:17:54;;;;;;;7.70;4.90;;;;;;;4.90;95.71;98039.77;109425;1251;71391;-78
2023/11/13 05:20:21;;;;;;;8.00;6.30;;;;;;;4.91;95.73;98040.77;109560;1251;59626;-79
2023/11/13 05:22:48;;;;;;;6.40;5.40;;;;;;;4.92;95.64;98043.38;109567;1251;61306;-79
2023/11/13 05:25:15;;;;;;;7.30;5.10;;;;;;;4.93;95.53;98045.44;109496;1251;72939;-80
2023/11/13 05:27:42;;;;;;;7.00;4.90;;;;;;;4.94;95.51;98046.84;109541;1251;73810;-81
2023/11/13 05:30:12;;;;;;;4.70;3.70;;;;;;;4.95;95.35;98048.23;109337;1251;71400;-81
2023/11/13 05:32:39;;;;;;;4.10;3.20;;;;;;;4.95;95.12;98055.83;109496;1251;59592;-81
2023/11/13 05:35:06;;;;;;;3.80;3.40;;;;;;;4.96;95.03;98058.61;109443;1251;58998;-82
2023/11/13 05:37:33;;;;;;;4.30;2.70;;;;;;;4.97;94.89;98059.80;109586;1251;71312;-82
2023/11/13 05:40:01;;;;;;;4.00;3.50;;;;;;;4.97;94.78;98061.42;109474;1251;77089;-83
2023/11/13 05:42:29;;;;;;;3.20;2.40;;;;;;;4.97;94.63;98065.31;109351;1251;71142;-83
2023/11/13 05:44:56;;;;;;;5.20;3.90;;;;;;;4.98;94.68;98068.12;109337;1251;59683;-83
2023/11/13 05:47:23;;;;;;;4.10;3.70;;;;;;;4.98;94.59;98064.55;109300;1251;63079;-83
2023/11/13 05:49:51;;;;;;;2.90;2.40;;;;;;;4.99;94.51;98070.00;109325;1251;72256;-82
2023/11/13 05:52:18;;;;;;;2.90;2.30;;;;;;;5.01;94.64;98070.45;109259;1253;73551;-83
2023/11/13 05:54:45;;;;;;;3.80;2.70;;;;;;;5.02;94.66;98067.53;109256;1253;72469;-82
2023/11/13 05:57:12;;;;;;;2.60;2.40;;;;;;;5.03;94.64;98066.91;109266;1252;60965;-82
2023/11/13 05:59:52;;;;;;;2.90;2.60;;;;;;;5.06;94.53;98068.91;109247;1253;59327;-83
2023/11/13 06:02:27;;;;;;;2.50;2.30;;;;;;;5.09;94.46;98077.27;109033;1253;74760;-83
2023/11/13 06:05:14;;;;;;;3.40;2.80;;;;;;;5.12;94.31;98079.64;109060;1253;74781;-82
2023/11/13 06:07:41;;;;;;;4.60;3.10;;;;;;;5.15;94.21;98073.78;109107;1254;72782;-82
2023/11/13 06:10:10;;;;;;;4.60;3.20;;;;;;;5.17;94.05;98071.00;109070;1252;63329;-82
2023/11/13 06:12:40;;;;;;;3.70;2.80;;;;;;;5.19;93.74;98076.05;109150;1253;59179;-83
2023/11/13 06:15:10;;;;;;;2.80;2.40;;;;;;;5.21;93.48;98076.48;109233;1254;73137;-83
2023/11/13 06:17:38;;;;;;;2.30;1.80;;;;;;;5.21;93.26;98076.13;109188;1252;74354;-83
2023/11/13 06:20:05;;;;;;;2.70;2.20;;;;;;;5.22;93.08;98082.29;109141;1253;72279;-83
2023/11/13 06:22:32;;;;;;;2.90;1.90;;;;;;;5.22;93.18;98087.08;109221;1253;60422;-82
2023/11/13 06:25:00;;;;;;;2.10;1.90;;;;;;;5.22;92.97;98090.27;109087;1254;61521;-82
2023/11/13 06:27:27;;;;;;;2.90;2.10;;;;;;;5.23;93.01;98096.27;109180;1254;74671;-83
2023/11/13 06:29:54;;;;;;;3.30;2.50;;;;;;;5.23;92.91;98093.26;109190;1253;73621;-84
2023/11/13 06:32:22;;;;;;;5.90;2.50;;;;;;;5.23;92.79;98097.52;109295;1252;72514;-84
2023/11/13 06:34:52;;;;;;;4.70;2.70;;;;;;;5.22;92.72;98103.94;109215;1254;59292;-83
2023/11/13 06:37:19;;;;;;;3.70;2.90;;;;;;;5.21;92.63;98104.86;109127;1254;60550;-83
2023/11/13 06:39:46;;;;;;;5.60;3.40;;;;;;;5.21;92.48;98108.80;109263;1252;75588;-84
2023/11/13 06:42:13;;;;;;;10.40;3.80;;;;;;;5.20;92.54;98105.10;109371;1254;73524;-84
2023/11/13 06:44:41;;;;;;;5.30;3.50;;;;;;;5.20;92.59;98107.39;109082;1254;73600;-84
2023/11/13 06:47:10;;;;;;;5.70;3.80;;;;;;;5.23;92.51;98105.14;109077;1253;61094;-84
2023/11/13 06:49:40;;;;;;;4.80;3.60;;;;;;;5.25;92.52;98103.27;109225;1254;59099;-84
2023/11/13 06:52:08;;;;;;;4.10;3.70;;;;;;;5.28;92.44;98105.95;109156;1253;74746;-85
2023/11/13 06:54:35;;;;;;;4.40;3.10;;;;;;;5.31;92.25;98106.11;109169;1253;73237;-84
2023/11/13 06:57:05;;;;;;;4.10;3.10;;;;;;;5.35;91.98;98103.80;109077;1253;72705;-84
2023/11/13 06:59:34;;;;;;;3.20;2.50;;;;;;;5.40;91.96;98103.17;109155;1252;60458;-84
2023/11/13 07:02:01;;;;;;;4.60;2.70;;;;;;;5.45;91.84;98101.30;109129;1254;59999;-83
2023/11/13 07:04:29;;;;;;;3.60;3.30;;;;;;;5.53;91.60;98098.43;109005;1253;73382;-84
2023/11/13 07:06:56;;;;;;;4.60;3.40;;;;;;;5.60;91.09;98098.36;109040;1253;72257;-84
2023/11/13 07:09:25;;;;;;;3.60;3.30;;;;;;;5.68;90.80;98102.39;109171;1254;72189;-86
2023/11/13 07:11:54;;;;;;;3.70;3.30;;;;;;;5.77;90.04;98102.45;109184;1252;60212;-85
2023/11/13 07:14:21;;;;;;;4.00;3.60;;;;;;;5.87;89.61;98103.51;109290;1254;59974;-83
2023/11/13 07:16:48;;;;;;;5.50;4.60;;;;;;;5.95;88.40;98110.00;109416;1252;75221;-84
2023/11/13 07:19:17;;;;;;;5.70;4.20;;;;;;;6.03;87.26;98122.37;109296;1253;74818;-83
2023/11/13 07:21:44;;;;;;;5.50;4.20;;;;;;;6.10;85.98;98116.67;109029;1252;72678;-83
2023/11/13 07:24:13;;;;;;;3.70;3.10;;;;;;;6.17;85.26;98124.10;109049;1252;61280;-83
2023/11/13 07:26:40;;;;;;;3.00;2.70;;;;;;;6.23;84.53;98121.98;108907;1254;61033;-87
2023/11/13 07:29:07;;;;;;;3.40;2.70;;;;;;;6.28;84.09;98130.26;109045;1258;74400;-84
2023/11/13 07:31:34;;;;;;;3.30;2.80;;;;;;;6.32;83.57;98130.91;109297;1253;73064;-86
2023/11/13 07:34:01;;;;;;;2.80;2.40;;;;;;;6.35;83.28;98127.34;109238;1253;71138;-84
2023/11/13 07:36:31;;;;;;;3.20;2.40;;;;;;;6.39;82.55;98122.33;109139;1252;60933;-80
2023/11/13 07:38:58;;;;;;;20.60;2.80;;;;;;;6.44;82.27;98117.79;109074;1252;60098;-82
2023/11/13 07:41:25;;;;;;;3.00;2.30;;;;;;;6.48;81.49;98118.77;109222;1256;74562;-84
2023/11/13 07:44:01;;;;;;;4.00;2.40;;;;;;;6.51;80.75;98115.22;109191;1254;74607;-83
2023/11/13 07:46:30;;;;;;;2.60;2.40;;;;;;;6.55;80.50;98115.36;109110;1254;72395;-83
2023/11/13 07:48:57;;;;;;;3.00;2.60;;;;;;;6.60;79.34;98111.54;109071;1253;60926;-81
2023/11/13 07:51:26;;;;;;;3.00;2.20;;;;;;;6.64;78.92;98115.05;109131;1252;60404;-82
2023/11/13 07:53:53;;;;;;;3.90;2.80;;;;;;;6.67;78.35;98126.94;109170;1253;74392;-83
2023/11/13 07:56:22;;;;;;;3.60;2.20;;;;;;;6.71;77.34;98135.29;109043;1254;76090;-81
2023/11/13 07:58:50;;;;;;;2.60;2.40;;;;;;;6.74;77.42;98130.31;109109;1253;71565;-81
2023/11/13 08:01:17;;;;;;;2.70;2.10;;;;;;;6.76;77.19;98131.98;108993;1256;62224;-83
2023/11/13 08:03:45;;;;;;;2.30;2.10;;;;;;;6.79;77.38;98137.65;109095;1252;60184;-83
2023/11/13 08:06:12;;;;;;;2.60;2.10;;;;;;;6.81;76.87;98145.02;108985;1253;74692;-81
2023/11/13 08:08:40;;;;;;;2.10;1.70;;;;;;;6.83;76.95;98150.56;109106;1256;73422;-83
2023/11/13 08:11:07;;;;;;;2.60;2.10;;;;;;;6.85;76.53;98147.27;109343;1252;72049;-85
2023/11/13 08:13:35;;;;;;;4.90;2.60;;;;;;;6.86;76.29;98150.02;109247;1253;59822;-87
2023/11/13 08:16:04;;;;;;;5.60;4.30;;;;;;;6.87;75.99;98155.86;109279;1252;59531;-87
2023/11/13 08:18:33;;;;;;;3.20;2.90;;;;;;;6.90;75.82;98154.33;109152;1253;72872;-87
2023/11/13 08:21:01;;;;;;;2.70;2.50;;;;;;;6.91;75.58;98155.48;108942;1253;75585;-86
2023/11/13 08:23:36;;;;;;;3.00;2.10;;;;;;;6.93;75.28;98155.55;109038;1253;71275;-91
2023/11/13 08:26:05;;;;;;;3.20;3.00;;;;;;;6.94;74.56;98154.23;109106;1252;59982;-87
2023/11/13 08:28:36;;;;;;;3.00;2.10;;;;;;;6.95;74.25;98162.73;109383;1254;59573;-88
2023/11/13 08:31:07;;;;;;;2.70;2.20;;;;;;;6.96;74.21;98148.92;108982;1254;74381;-88
2023/11/13 08:33:37;;;;;;;3.10;2.60;;;;;;;6.98;74.09;98157.37;109194;1254;73568;-88
2023/11/13 08:36:06;;;;;;;3.90;3.50;;;;;;;7.00;74.06;98152.61;109241;1253;72306;-88
2023/11/13 08:38:35;;;;;;;3.50;2.90;;;;;;;7.03;74.07;98151.94;109206;1253;59559;-84
2023/11/13 08:41:06;;;;;;;6.70;4.00;;;;;;;7.05;73.73;98159.29;108995;1252;60593;-86
2023/11/13 08:43:34;;;;;;;6.30;4.80;;;;;;;7.07;73.26;98152.08;109197;1252;74440;-86
2023/11/13 08:46:04;;;;;;;6.60;5.00;;;;;;;7.09;73.31;98151.59;109194;1253;74194;-87
2023/11/13 08:48:31;;;;;;;9.70;6.30;;;;;;;7.10;72.91;98149.19;109228;1252;73886;-87
2023/11/13 08:51:01;;;;;;;7.30;5.70;;;;;;;7.11;73.15;98148.79;109276;1254;59441;-86
2023/11/13 08:53:29;;;;;;;7.90;6.70;;;;;;;7.12;72.65;98140.20;109176;1254;60222;-86
2023/11/13 08:55:57;;;;;;;5.10;3.80;;;;;;;7.15;73.15;98141.06;109293;1256;75245;-87
2023/11/13 08:58:26;;;;;;;5.00;2.80;;;;;;;7.18;72.96;98141.58;109362;1252;73401;-87
2023/11/13 09:00:53;;;;;;;3.60;2.50;;;;;;;7.20;72.46;98139.48;109206;1254;71298;-86
2023/11/13 09:03:23;;;;;;;3.90;2.70;;;;;;;7.23;72.59;98132.92;109340;1253;60234;-84
2023/11/13 09:05:51;;;;;;;5.20;3.10;;;;;;;7.28;72.32;98131.41;109435;1253;59154;-86
2023/11/13 09:08:18;;;;;;;3.40;3.10;;;;;;;7.32;72.10;98125.11;109256;1258;75962;-84
2023/11/13 09:10:54;;;;;;;4.20;3.40;;;;;;;7.36;71.84;98132.69;109129;1253;74763;-88
2023/11/13 09:13:30;;;;;;;6.80;4.60;;;;;;;7.41;71.66;98127.07;109086;1253;73653;-85
2023/11/13 09:16:04;;;;;;;6.00;4.20;;;;;;;7.46;71.94;98129.61;109264;1253;59182;-85
2023/11/13 09:18:32;;;;;;;4.10;3.70;;;;;;;7.50;71.99;98125.95;109273;1254;61437;-87
2023/11/13 09:20:59;;;;;;;5.70;4.40;;;;;;;7.56;72.45;98121.49;109109;1252;74243;-87
2023/11/13 09:23:33;;;;;;;3.90;3.30;;;;;;;7.63;72.43;98124.86;109226;1252;73503;-87
2023/11/13 09:26:10;;;;;;;3.00;2.30;;;;;;;7.68;72.21;98125.91;108929;1254;72716;-87
2023/11/13 09:28:39;;;;;;;2.90;2.30;;;;;;;7.73;71.87;98128.67;109160;1254;59889;-86
2023/11/13 09:31:09;;;;;;;3.70;2.60;;;;;;;7.78;71.77;98124.80;108959;1254;60531;-88
2023/11/13 09:33:45;;;;;;;5.20;2.00;;;;;;;7.82;71.78;98120.27;109279;1252;74666;-87
2023/11/13 09:36:13;;;;;;;2.00;1.80;;;;;;;7.86;71.77;98114.46;109227;1253;75508;-86
2023/11/13 09:38:44;;;;;;;2.30;1.70;;;;;;;7.91;71.83;98117.55;109431;1253;72039;-88
2023/11/13 09:41:11;;;;;;;2.70;2.00;;;;;;;7.95;71.35;98116.77;109369;1254;59511;-87
2023/11/13 09:43:39;;;;;;;2.00;1.60;;;;;;;7.99;71.22;98110.64;109471;1253;59920;-87
2023/11/13 09:46:08;;;;;;;2.80;1.80;;;;;;;8.04;71.14;98107.50;109597;1256;76207;-87
2023/11/13 09:48:45;;;;;;;6.10;2.10;;;;;;;8.09;70.75;98113.40;109475;1254;74490;-88
2023/11/13 09:51:20;;;;;;;2.60;1.50;;;;;;;8.18;70.76;98105.31;109236;1253;73322;-88
2023/11/13 09:54:00;;;;;;;1.90;1.40;;;;;;;8.29;70.68;98096.74;109132;1254;61355;-88
2023/11/13 09:56:31;;;;;;;2.00;1.40;;;;;;;8.44;69.95;98100.29;109439;1254;60170;-87
2023/11/13 09:58:58;;;;;;;2.90;2.00;;;;;;;8.59;69.26;98093.58;109400;1254;73261;-87
2023/11/13 10:01:25;;;;;;;1.90;1.50;;;;;;;8.78;68.62;98100.02;109064;1254;73230;-87
2023/11/13 10:03:54;;;;;;;1.90;1.40;;;;;;;8.96;67.89;98093.98;109127;1254;72249;-87
2023/11/13 10:06:21;;;;;;;3.80;1.30;;;;;;;9.16;67.29;98081.55;109248;1254;61295;-87
2023/11/13 10:08:51;;;;;;;1.70;1.40;;;;;;;9.33;66.41;98094.67;108993;1253;60394;-86
2023/11/13 10:11:20;;;;;;;2.10;1.70;;;;;;;9.50;65.47;98089.98;109147;1254;75467;-86
2023/11/13 10:14:19;;;;;;;2.40;1.80;;;;;;;9.57;65.31;98078.75;109046;1255;73012;-87
2023/11/13 10:17:00;;;;;;;2.10;1.50;;;;;;;9.61;64.68;98071.11;108950;1254;73497;-86
2023/11/13 10:19:28;;;;;;;1.80;1.60;;;;;;;9.60;64.74;98073.54;109129;1253;60927;-87
2023/11/13 10:21:57;;;;;;;1.40;1.30;;;;;;;9.54;64.41;98087.71;108903;1254;60013;-86
2023/11/13 10:24:24;;;;;;;1.80;1.60;;;;;;;9.45;64.59;98091.76;109134;1254;73429;-86
2023/11/13 10:27:07;;;;;;;1.70;1.60;;;;;;;9.32;64.96;98091.37;109109;1254;73446;-86
2023/11/13 10:29:36;;;;;;;2.60;2.30;;;;;;;9.21;65.69;98082.81;108825;1254;72171;-86
2023/11/13 10:32:04;;;;;;;2.90;2.10;;;;;;;9.12;66.14;98083.63;109347;1254;61299;-84
2023/11/13 10:34:44;;;;;;;2.30;1.90;;;;;;;9.01;66.36;98080.39;109179;1254;60427;-85
2023/11/13 10:37:12;;;;;;;2.30;2.10;;;;;;;8.93;66.94;98086.86;109065;1254;73568;-85
2023/11/13 10:39:42;;;;;;;2.10;1.80;;;;;;;8.85;67.32;98079.05;108990;1254;74340;-86
2023/11/13 10:42:18;;;;;;;2.50;1.40;;;;;;;8.77;67.37;98084.36;109283;1254;72316;-88
2023/11/13 10:44:59;;;;;;;2.20;2.00;;;;;;;8.70;67.45;98082.67;109231;1254;59497;-86
2023/11/13 10:47:32;;;;;;;3.30;1.90;;;;;;;8.63;67.77;98079.58;108888;1256;59284;-86
2023/11/13 10:50:23;;;;;;;2.10;1.90;;;;;;;8.55;68.48;98084.20;108986;1254;73779;-85
2023/11/13 10:52:52;;;;;;;3.00;2.10;;;;;;;8.49;69.20;98070.52;109245;1253;74044;-85
2023/11/13 10:55:21;;;;;;;3.00;2.60;;;;;;;8.46;69.62;98073.92;109301;1253;71807;-87
2023/11/13 10:57:52;;;;;;;3.00;2.10;;;;;;;8.45;70.06;98074.02;109209;1252;61077;-84
2023/11/13 11:00:19;;;;;;;2.50;1.80;;;;;;;8.43;70.35;98073.38;109024;1253;61240;-86
2023/11/13 11:02:51;;;;;;;3.70;1.90;;;;;;;8.44;69.99;98071.34;109130;1254;75465;-84
2023/11/13 11:05:26;;;;;;;2.90;2.60;;;;;;;8.45;70.20;98074.66;109174;1254;74029;-86
2023/11/13 11:07:54;;;;;;;3.60;3.20;;;;;;;8.47;70.69;98075.09;109087;1253;73460;-86
2023/11/13 11:10:26;;;;;;;1.70;1.60;;;;;;;8.48;69.01;98078.46;108972;1254;60894;-85
2023/11/13 11:13:08;;;;;;;3.40;2.10;;;;;;;8.44;68.47;98077.45;109286;1253;59827;-85
2023/11/13 11:16:14;;;;;;;3.30;2.10;;;;;;;8.40;68.79;98068.60;109117;1254;75684;-84
2023/11/13 11:18:48;;;;;;;4.40;3.20;;;;;;;8.35;68.79;98073.01;108491;1260;73760;-84
2023/11/13 11:21:35;;;;;;;5.50;3.20;;;;;;;8.32;69.23;98071.40;108448;1260;73775;-84
2023/11/13 11:24:07;;;;;;;5.00;3.60;;;;;;;8.32;69.70;98067.64;108529;1263;59617;-85
2023/11/13 11:26:54;;;;;;;2.80;2.50;;;;;;;8.33;69.73;98065.45;108443;1261;60065;-85
2023/11/13 11:29:37;;;;;;;2.20;2.00;;;;;;;8.34;69.54;98067.02;108486;1260;75629;-85
2023/11/13 11:32:18;;;;;;;2.40;2.00;;;;;;;8.33;69.52;98072.42;108230;1260;76352;-85
2023/11/13 11:34:52;;;;;;;4.50;2.60;;;;;;;8.32;69.51;98067.65;108610;1259;73671;-85
2023/11/13 11:37:19;;;;;;;4.10;2.20;;;;;;;8.31;70.00;98065.60;108363;1260;60803;-85
2023/11/13 11:39:50;;;;;;;3.00;2.10;;;;;;;8.30;70.32;98067.59;108340;1264;62217;-85
2023/11/13 11:42:23;;;;;;;2.80;2.00;;;;;;;8.29;70.43;98070.33;108263;1260;74714;-86